createdAt,value
2017-11-17T00:10:41.992Z,99145.38
2017-11-17T00:31:08.817Z,99126.56
2017-11-17T00:51:38.467Z,99128.42
2017-11-17T01:12:06.309Z,99138.02
2017-11-17T01:32:34.919Z,99137.45
2017-11-17T01:53:03.362Z,99139.73
2017-11-17T02:13:30.738Z,99154.19
2017-11-17T02:33:58.877Z,99153.47
2017-11-17T02:54:28.642Z,99144.81
2017-11-17T03:14:55.849Z,99140.03
2017-11-17T03:35:25.789Z,99136.88
2017-11-17T03:55:52.983Z,99143.61
2017-11-17T04:16:21.861Z,99174.42
2017-11-17T04:36:48.671Z,99165.81
2017-11-17T04:57:15.464Z,99161.13
2017-11-17T05:17:43.308Z,99180.59
2017-11-17T05:38:11.975Z,99175.75
2017-11-17T05:58:40.867Z,99187.05
2017-11-17T06:19:07.385Z,99201.30
2017-11-17T06:57:36.653Z,99227.68
2017-11-17T07:18:03.611Z,99235.12
2017-11-17T07:38:30.886Z,99245.08
2017-11-17T07:59:01.588Z,99264.47
2017-11-17T08:19:29.290Z,99272.73
2017-11-17T08:39:55.977Z,99279.59
2017-11-17T09:00:25.600Z,99289.35
2017-11-17T09:20:53.298Z,99303.98
2017-11-17T09:41:20.321Z,99301.48
2017-11-17T10:01:47.486Z,99286.87
2017-11-17T10:22:15.400Z,99278.39
2017-11-17T10:42:41.938Z,99273.78
2017-11-17T11:03:10.829Z,99268.23
2017-11-17T11:23:37.077Z,99252.19
2017-11-17T11:44:03.907Z,99235.11
2017-11-17T12:04:31.161Z,99223.06
2017-11-17T12:24:57.521Z,99204.68
2017-11-17T12:45:24.631Z,99197.33
2017-11-17T13:05:52.710Z,99200.05
2017-11-17T13:26:20.021Z,99188.94
2017-11-17T13:46:46.011Z,99191.59
2017-11-17T14:07:13.320Z,99201.20
2017-11-17T14:27:40.951Z,99208.56
2017-11-17T14:48:07.270Z,99192.89
2017-11-17T15:08:34.979Z,99199.55
2017-11-17T15:29:01.989Z,99198.77
2017-11-17T15:49:29.774Z,99196.07
2017-11-17T16:09:56.866Z,99200.58
2017-11-17T16:30:23.699Z,99189.44
2017-11-17T16:50:52.663Z,99213.78
2017-11-17T17:11:20.328Z,99188.98
2017-11-17T17:31:46.979Z,99181.75
2017-11-17T17:52:14.589Z,99181.44
2017-11-17T18:12:41.583Z,99194.56
2017-11-17T18:33:09.680Z,99208.80
2017-11-17T18:53:38.135Z,99195.91
2017-11-17T19:14:05.399Z,99191.13
2017-11-17T19:34:34.005Z,99173.04
2017-11-17T19:55:01.364Z,99183.41
2017-11-17T20:15:29.329Z,99203.41
2017-11-17T20:35:57.574Z,99211.03
2017-11-17T20:56:24.625Z,99219.88
2017-11-17T21:16:53.108Z,99195.71
2017-11-17T21:37:28.309Z,99155.16
2017-11-17T21:57:54.566Z,99140.55
2017-11-17T22:18:21.807Z,99132.16
2017-11-17T22:38:49.465Z,99134.15
2017-11-17T22:59:16.356Z,99149.52
2017-11-17T23:19:45.311Z,99143.20
2017-11-17T23:40:12.705Z,99116.05
